sensor_id;sensor_type;location;lat;lon;timestamp;pressure;altitude;pressure_sealevel;temperature;humidity
2178;BME280;1095;50.992;6.798;2023-02-21T00:00:07;101398.00;;;6.60;100.00
2178;BME280;1095;50.992;6.798;2023-02-21T00:02:51;101394.69;;;6.58;100.00
2178;BME280;1095;50.992;6.798;2023-02-21T00:05:35;101389.47;;;6.58;100.00
2178;BME280;1095;50.992;6.798;2023-02-21T00:08:19;101396.09;;;6.62;100.00
2178;BME280;1095;50.992;6.798;2023-02-21T00:11:03;101401.78;;;6.67;100.00
2178;BME280;1095;50.992;6.798;2023-02-21T00:13:47;101402.78;;;6.77;100.00
2178;BME280;1095;50.992;6.798;2023-02-21T00:16:33;101403.38;;;6.81;100.00
2178;BME280;1095;50.992;6.798;2023-02-21T00:19:17;101405.03;;;6.82;100.00
2178;BME280;1095;50.992;6.798;2023-02-21T00:22:01;101405.75;;;6.84;100.00
2178;BME280;1095;50.992;6.798;2023-02-21T00:24:45;101400.56;;;6.84;100.00
2178;BME280;1095;50.992;6.798;2023-02-21T00:27:29;101405.47;;;6.99;100.00
2178;BME280;1095;50.992;6.798;2023-02-21T00:30:14;101403.47;;;7.03;100.00
2178;BME280;1095;50.992;6.798;2023-02-21T00:33:00;101408.06;;;7.11;100.00
2178;BME280;1095;50.992;6.798;2023-02-21T00:35:44;101416.72;;;7.11;100.00
2178;BME280;1095;50.992;6.798;2023-02-21T00:38:28;101403.81;;;7.10;100.00
2178;BME280;1095;50.992;6.798;2023-02-21T00:41:13;101398.25;;;7.14;100.00
2178;BME280;1095;50.992;6.798;2023-02-21T00:43:57;101400.75;;;7.16;100.00
2178;BME280;1095;50.992;6.798;2023-02-21T00:46:41;101400.63;;;7.17;100.00
2178;BME280;1095;50.992;6.798;2023-02-21T00:49:26;101398.97;;;7.16;100.00
2178;BME280;1095;50.992;6.798;2023-02-21T00:52:10;101409.28;;;7.18;100.00
2178;BME280;1095;50.992;6.798;2023-02-21T00:54:54;101404.69;;;7.21;100.00
2178;BME280;1095;50.992;6.798;2023-02-21T00:57:38;101398.41;;;7.24;100.00
2178;BME280;1095;50.992;6.798;2023-02-21T01:00:23;101401.47;;;7.18;100.00
2178;BME280;1095;50.992;6.798;2023-02-21T01:03:08;101396.50;;;7.15;100.00
2178;BME280;1095;50.992;6.798;2023-02-21T01:05:54;101401.72;;;7.26;100.00
2178;BME280;1095;50.992;6.798;2023-02-21T01:08:40;101396.53;;;7.26;100.00
2178;BME280;1095;50.992;6.798;2023-02-21T01:11:25;101393.69;;;7.29;100.00
2178;BME280;1095;50.992;6.798;2023-02-21T01:14:09;101395.34;;;7.30;100.00
2178;BME280;1095;50.992;6.798;2023-02-21T01:16:53;101394.41;;;7.31;100.00
2178;BME280;1095;50.992;6.798;2023-02-21T01:19:37;101398.06;;;7.28;100.00
2178;BME280;1095;50.992;6.798;2023-02-21T01:22:23;101391.31;;;7.26;100.00
2178;BME280;1095;50.992;6.798;2023-02-21T01:25:08;101392.03;;;7.28;100.00
2178;BME280;1095;50.992;6.798;2023-02-21T01:27:53;101389.53;;;7.26;100.00
2178;BME280;1095;50.992;6.798;2023-02-21T01:30:38;101397.34;;;7.26;100.00
2178;BME280;1095;50.992;6.798;2023-02-21T01:33:22;101386.34;;;7.23;100.00
2178;BME280;1095;50.992;6.798;2023-02-21T01:36:06;101388.25;;;7.32;100.00
2178;BME280;1095;50.992;6.798;2023-02-21T01:38:52;101394.63;;;7.28;100.00
2178;BME280;1095;50.992;6.798;2023-02-21T01:41:36;101386.94;;;7.26;100.00
2178;BME280;1095;50.992;6.798;2023-02-21T01:44:33;101381.63;;;7.28;100.00
2178;BME280;1095;50.992;6.798;2023-02-21T01:47:18;101381.84;;;7.25;100.00
2178;BME280;1095;50.992;6.798;2023-02-21T01:50:05;101377.81;;;7.21;100.00
2178;BME280;1095;50.992;6.798;2023-02-21T01:52:50;101383.75;;;7.23;100.00
2178;BME280;1095;50.992;6.798;2023-02-21T01:55:38;101390.38;;;7.27;100.00
2178;BME280;1095;50.992;6.798;2023-02-21T01:58:24;101389.19;;;7.31;100.00
2178;BME280;1095;50.992;6.798;2023-02-21T02:01:13;101379.34;;;7.23;100.00
2178;BME280;1095;50.992;6.798;2023-02-21T02:04:00;101375.69;;;7.26;100.00
2178;BME280;1095;50.992;6.798;2023-02-21T02:06:44;101369.06;;;7.22;100.00
2178;BME280;1095;50.992;6.798;2023-02-21T02:09:28;101363.03;;;7.21;100.00
2178;BME280;1095;50.992;6.798;2023-02-21T02:12:28;101368.22;;;7.21;100.00
2178;BME280;1095;50.992;6.798;2023-02-21T02:15:16;101368.34;;;7.20;100.00
2178;BME280;1095;50.992;6.798;2023-02-21T02:20:52;101368.13;;;7.23;100.00
2178;BME280;1095;50.992;6.798;2023-02-21T02:26:56;101364.09;;;7.19;100.00
2178;BME280;1095;50.992;6.798;2023-02-21T02:29:44;101357.59;;;7.24;100.00
2178;BME280;1095;50.992;6.798;2023-02-21T02:32:26;101361.84;;;7.25;100.00
2178;BME280;1095;50.992;6.798;2023-02-21T02:35:02;101361.72;;;7.27;100.00
2178;BME280;1095;50.992;6.798;2023-02-21T02:37:36;101352.03;;;7.18;100.00
2178;BME280;1095;50.992;6.798;2023-02-21T02:40:16;101357.47;;;7.26;100.00
2178;BME280;1095;50.992;6.798;2023-02-21T02:42:52;101358.56;;;7.35;100.00
2178;BME280;1095;50.992;6.798;2023-02-21T02:45:27;101360.31;;;7.34;100.00
2178;BME280;1095;50.992;6.798;2023-02-21T02:47:58;101352.03;;;7.29;100.00
2178;BME280;1095;50.992;6.798;2023-02-21T02:50:30;101354.63;;;7.29;100.00
2178;BME280;1095;50.992;6.798;2023-02-21T02:53:00;101351.91;;;7.30;100.00
2178;BME280;1095;50.992;6.798;2023-02-21T02:55:34;101350.84;;;7.33;100.00
2178;BME280;1095;50.992;6.798;2023-02-21T02:58:03;101343.03;;;7.33;100.00
2178;BME280;1095;50.992;6.798;2023-02-21T03:00:33;101343.88;;;7.33;100.00
2178;BME280;1095;50.992;6.798;2023-02-21T03:03:19;101338.66;;;7.33;100.00
2178;BME280;1095;50.992;6.798;2023-02-21T03:06:01;101335.00;;;7.36;100.00
2178;BME280;1095;50.992;6.798;2023-02-21T03:08:32;101335.84;;;7.37;100.00
2178;BME280;1095;50.992;6.798;2023-02-21T03:11:09;101335.00;;;7.36;100.00
2178;BME280;1095;50.992;6.798;2023-02-21T03:13:42;101335.34;;;7.31;100.00
2178;BME280;1095;50.992;6.798;2023-02-21T03:16:15;101339.63;;;7.32;100.00
2178;BME280;1095;50.992;6.798;2023-02-21T03:18:47;101341.50;;;7.30;100.00
2178;BME280;1095;50.992;6.798;2023-02-21T03:21:18;101340.78;;;7.28;100.00
2178;BME280;1095;50.992;6.798;2023-02-21T03:23:50;101340.91;;;7.27;100.00
2178;BME280;1095;50.992;6.798;2023-02-21T03:26:19;101329.31;;;7.31;100.00
2178;BME280;1095;50.992;6.798;2023-02-21T03:28:46;101327.53;;;7.31;100.00
2178;BME280;1095;50.992;6.798;2023-02-21T03:31:16;101338.66;;;7.33;100.00
2178;BME280;1095;50.992;6.798;2023-02-21T03:33:45;101338.66;;;7.33;100.00
2178;BME280;1095;50.992;6.798;2023-02-21T03:36:13;101329.56;;;7.39;100.00
2178;BME280;1095;50.992;6.798;2023-02-21T03:38:41;101339.38;;;7.47;100.00
2178;BME280;1095;50.992;6.798;2023-02-21T03:41:09;101339.03;;;7.40;100.00
2178;BME280;1095;50.992;6.798;2023-02-21T03:43:37;101338.91;;;7.30;100.00
2178;BME280;1095;50.992;6.798;2023-02-21T03:46:04;101344.22;;;7.29;100.00
2178;BME280;1095;50.992;6.798;2023-02-21T03:48:30;101341.63;;;7.29;100.00
2178;BME280;1095;50.992;6.798;2023-02-21T03:50:57;101338.19;;;7.28;100.00
2178;BME280;1095;50.992;6.798;2023-02-21T03:53:24;101341.63;;;7.29;100.00
2178;BME280;1095;50.992;6.798;2023-02-21T03:55:52;101337.38;;;7.28;100.00
2178;BME280;1095;50.992;6.798;2023-02-21T03:58:18;101338.78;;;7.32;100.00
2178;BME280;1095;50.992;6.798;2023-02-21T04:00:45;101348.72;;;7.38;100.00
2178;BME280;1095;50.992;6.798;2023-02-21T04:03:12;101337.97;;;7.31;100.00
2178;BME280;1095;50.992;6.798;2023-02-21T04:05:38;101350.63;;;7.36;100.00
2178;BME280;1095;50.992;6.798;2023-02-21T04:08:05;101336.53;;;7.39;100.00
2178;BME280;1095;50.992;6.798;2023-02-21T04:10:32;101336.19;;;7.43;100.00
2178;BME280;1095;50.992;6.798;2023-02-21T04:13:00;101327.78;;;7.40;100.00
2178;BME280;1095;50.992;6.798;2023-02-21T04:15:26;101333.34;;;7.46;100.00
2178;BME280;1095;50.992;6.798;2023-02-21T04:17:53;101326.72;;;7.42;100.00
2178;BME280;1095;50.992;6.798;2023-02-21T04:20:19;101325.06;;;7.41;100.00
2178;BME280;1095;50.992;6.798;2023-02-21T04:22:48;101323.75;;;7.36;100.00
2178;BME280;1095;50.992;6.798;2023-02-21T04:25:17;101315.84;;;7.37;100.00
2178;BME280;1095;50.992;6.798;2023-02-21T04:27:44;101320.44;;;7.33;100.00
2178;BME280;1095;50.992;6.798;2023-02-21T04:30:12;101320.22;;;7.37;100.00
2178;BME280;1095;50.992;6.798;2023-02-21T04:32:39;101321.75;;;7.39;100.00
2178;BME280;1095;50.992;6.798;2023-02-21T04:35:06;101322.94;;;7.35;100.00
2178;BME280;1095;50.992;6.798;2023-02-21T04:37:32;101320.56;;;7.32;100.00
2178;BME280;1095;50.992;6.798;2023-02-21T04:39:59;101320.22;;;7.37;100.00
2178;BME280;1095;50.992;6.798;2023-02-21T04:42:25;101324.81;;;7.33;100.00
2178;BME280;1095;50.992;6.798;2023-02-21T04:44:52;101320.91;;;7.27;100.00
2178;BME280;1095;50.992;6.798;2023-02-21T04:47:20;101324.13;;;7.42;100.00
2178;BME280;1095;50.992;6.798;2023-02-21T04:49:47;101323.53;;;7.39;100.00
2178;BME280;1095;50.992;6.798;2023-02-21T04:52:16;101324.59;;;7.36;100.00
2178;BME280;1095;50.992;6.798;2023-02-21T04:54:44;101321.28;;;7.34;100.00
2178;BME280;1095;50.992;6.798;2023-02-21T04:57:11;101319.03;;;7.29;100.00
2178;BME280;1095;50.992;6.798;2023-02-21T04:59:37;101325.19;;;7.28;100.00
2178;BME280;1095;50.992;6.798;2023-02-21T05:02:04;101332.16;;;7.28;100.00
2178;BME280;1095;50.992;6.798;2023-02-21T05:04:32;101328.84;;;7.26;100.00
2178;BME280;1095;50.992;6.798;2023-02-21T05:07:05;101329.44;;;7.29;100.00
2178;BME280;1095;50.992;6.798;2023-02-21T05:09:32;101326.84;;;7.29;100.00
2178;BME280;1095;50.992;6.798;2023-02-21T05:11:59;101330.72;;;7.24;100.00
2178;BME280;1095;50.992;6.798;2023-02-21T05:14:25;101325.88;;;7.19;100.00
2178;BME280;1095;50.992;6.798;2023-02-21T05:16:52;101336.41;;;7.18;100.00
2178;BME280;1095;50.992;6.798;2023-02-21T05:19:19;101323.97;;;7.10;100.00
2178;BME280;1095;50.992;6.798;2023-02-21T05:21:53;101329.78;;;7.14;100.00
2178;BME280;1095;50.992;6.798;2023-02-21T05:24:20;101327.66;;;7.19;100.00
2178;BME280;1095;50.992;6.798;2023-02-21T05:26:47;101325.50;;;7.13;100.00
2178;BME280;1095;50.992;6.798;2023-02-21T05:29:14;101340.19;;;7.14;100.00
2178;BME280;1095;50.992;6.798;2023-02-21T05:31:40;101336.41;;;7.18;100.00
2178;BME280;1095;50.992;6.798;2023-02-21T05:34:07;101337.13;;;7.09;100.00
2178;BME280;1095;50.992;6.798;2023-02-21T05:36:33;101337.13;;;7.09;100.00
2178;BME280;1095;50.992;6.798;2023-02-21T05:39:02;101321.97;;;7.03;100.00
2178;BME280;1095;50.992;6.798;2023-02-21T05:41:29;101330.25;;;7.08;100.00
2178;BME280;1095;50.992;6.798;2023-02-21T05:43:56;101323.75;;;7.02;100.00
2178;BME280;1095;50.992;6.798;2023-02-21T05:46:24;101330.25;;;7.08;100.00
2178;BME280;1095;50.992;6.798;2023-02-21T05:48:51;101320.44;;;7.00;100.00
2178;BME280;1095;50.992;6.798;2023-02-21T05:51:18;101332.16;;;7.06;100.00
2178;BME280;1095;50.992;6.798;2023-02-21T05:53:45;101333.56;;;6.98;100.00
2178;BME280;1095;50.992;6.798;2023-02-21T05:56:14;101317.56;;;6.92;100.00
2178;BME280;1095;50.992;6.798;2023-02-21T05:58:47;101323.00;;;6.89;100.00
2178;BME280;1095;50.992;6.798;2023-02-21T06:01:14;101323.94;;;6.88;100.00
2178;BME280;1095;50.992;6.798;2023-02-21T06:03:40;101331.50;;;6.80;100.00
2178;BME280;1095;50.992;6.798;2023-02-21T06:06:08;101344.38;;;6.81;100.00
2178;BME280;1095;50.992;6.798;2023-02-21T06:08:41;101351.25;;;6.82;100.00
2178;BME280;1095;50.992;6.798;2023-02-21T06:11:08;101350.66;;;6.79;100.00
2178;BME280;1095;50.992;6.798;2023-02-21T06:13:36;101353.59;;;6.74;100.00
2178;BME280;1095;50.992;6.798;2023-02-21T06:16:03;101356.63;;;6.68;100.00
2178;BME280;1095;50.992;6.798;2023-02-21T06:18:30;101353.47;;;6.76;100.00
2178;BME280;1095;50.992;6.798;2023-02-21T06:20:57;101343.28;;;6.73;100.00
2178;BME280;1095;50.992;6.798;2023-02-21T06:23:24;101351.94;;;6.73;100.00
2178;BME280;1095;50.992;6.798;2023-02-21T06:25:52;101339.88;;;6.72;100.00
2178;BME280;1095;50.992;6.798;2023-02-21T06:28:18;101343.84;;;6.65;100.00
2178;BME280;1095;50.992;6.798;2023-02-21T06:30:46;101346.69;;;6.62;100.00
2178;BME280;1095;50.992;6.798;2023-02-21T06:33:13;101342.19;;;6.64;100.00
2178;BME280;1095;50.992;6.798;2023-02-21T06:35:42;101340.31;;;6.66;100.00
2178;BME280;1095;50.992;6.798;2023-02-21T06:38:08;101341.25;;;6.65;100.00
2178;BME280;1095;50.992;6.798;2023-02-21T06:40:35;101351.44;;;6.68;100.00
2178;BME280;1095;50.992;6.798;2023-02-21T06:43:02;101350.72;;;6.66;100.00
2178;BME280;1095;50.992;6.798;2023-02-21T06:45:29;101346.47;;;6.65;100.00
2178;BME280;1095;50.992;6.798;2023-02-21T06:48:01;101332.28;;;6.58;100.00
2178;BME280;1095;50.992;6.798;2023-02-21T06:50:32;101340.31;;;6.66;100.00
2178;BME280;1095;50.992;6.798;2023-02-21T06:52:59;101342.06;;;6.54;100.00
2178;BME280;1095;50.992;6.798;2023-02-21T06:55:26;101348.72;;;6.58;100.00
2178;BME280;1095;50.992;6.798;2023-02-21T06:57:53;101349.28;;;6.62;100.00
2178;BME280;1095;50.992;6.798;2023-02-21T07:00:26;101341.97;;;6.67;100.00
2178;BME280;1095;50.992;6.798;2023-02-21T07:02:56;101354.25;;;6.65;100.00
2178;BME280;1095;50.992;6.798;2023-02-21T07:05:23;101350.72;;;6.66;100.00
2178;BME280;1095;50.992;6.798;2023-02-21T07:07:59;101335.31;;;6.52;100.00
2178;BME280;1095;50.992;6.798;2023-02-21T07:10:25;101350.72;;;6.66;100.00
2178;BME280;1095;50.992;6.798;2023-02-21T07:12:52;101351.66;;;6.65;100.00
2178;BME280;1095;50.992;6.798;2023-02-21T07:15:19;101360.91;;;6.69;100.00
2178;BME280;1095;50.992;6.798;2023-02-21T07:17:45;101345.41;;;6.68;100.00
2178;BME280;1095;50.992;6.798;2023-02-21T07:20:13;101356.31;;;6.73;100.00
2178;BME280;1095;50.992;6.798;2023-02-21T07:22:40;101351.94;;;6.73;100.00
2178;BME280;1095;50.992;6.798;2023-02-21T07:25:07;101350.66;;;6.79;100.00
2178;BME280;1095;50.992;6.798;2023-02-21T07:27:37;101358.34;;;6.80;100.00
2178;BME280;1095;50.992;6.798;2023-02-21T07:30:04;101359.78;;;6.84;100.00
2178;BME280;1095;50.992;6.798;2023-02-21T07:32:31;101362.75;;;6.91;100.00
2178;BME280;1095;50.992;6.798;2023-02-21T07:34:58;101360.25;;;6.89;100.00
2178;BME280;1095;50.992;6.798;2023-02-21T07:37:26;101363.09;;;6.86;100.00
2178;BME280;1095;50.992;6.798;2023-02-21T07:39:53;101362.03;;;6.89;100.00
2178;BME280;1095;50.992;6.798;2023-02-21T07:42:19;101357.38;;;6.81;100.00
2178;BME280;1095;50.992;6.798;2023-02-21T07:44:46;101365.19;;;6.81;100.00
2178;BME280;1095;50.992;6.798;2023-02-21T07:47:13;101370.41;;;6.81;100.00
2178;BME280;1095;50.992;6.798;2023-02-21T07:49:40;101363.19;;;6.85;100.00
2178;BME280;1095;50.992;6.798;2023-02-21T07:52:06;101371.97;;;6.95;100.00
2178;BME280;1095;50.992;6.798;2023-02-21T07:54:34;101362.19;;;6.98;100.00
2178;BME280;1095;50.992;6.798;2023-02-21T07:57:01;101365.50;;;7.01;100.00
2178;BME280;1095;50.992;6.798;2023-02-21T07:59:28;101357.13;;;7.08;100.00
2178;BME280;1095;50.992;6.798;2023-02-21T08:01:55;101367.63;;;7.07;100.00
2178;BME280;1095;50.992;6.798;2023-02-21T08:04:22;101364.78;;;7.10;100.00
2178;BME280;1095;50.992;6.798;2023-02-21T08:06:48;101361.50;;;7.08;100.00
2178;BME280;1095;50.992;6.798;2023-02-21T08:09:17;101363.38;;;7.06;100.00
2178;BME280;1095;50.992;6.798;2023-02-21T08:11:45;101365.50;;;7.01;100.00
2178;BME280;1095;50.992;6.798;2023-02-21T08:14:15;101358.63;;;6.99;100.00
2178;BME280;1095;50.992;6.798;2023-02-21T08:16:42;101352.81;;;6.96;100.00
2178;BME280;1095;50.992;6.798;2023-02-21T08:19:12;101351.16;;;6.95;100.00
2178;BME280;1095;50.992;6.798;2023-02-21T08:21:48;101358.84;;;6.96;100.00
2178;BME280;1095;50.992;6.798;2023-02-21T08:24:18;101371.88;;;6.96;100.00
2178;BME280;1095;50.992;6.798;2023-02-21T08:26:49;101366.31;;;7.01;100.00
2178;BME280;1095;50.992;6.798;2023-02-21T08:32:19;101365.38;;;7.02;100.00
2178;BME280;1095;50.992;6.798;2023-02-21T08:34:58;101354.38;;;6.98;100.00
2178;BME280;1095;50.992;6.798;2023-02-21T08:37:37;101360.28;;;7.01;100.00
2178;BME280;1095;50.992;6.798;2023-02-21T08:40:32;101356.63;;;7.03;100.00
2178;BME280;1095;50.992;6.798;2023-02-21T08:43:04;101355.91;;;7.01;100.00
2178;BME280;1095;50.992;6.798;2023-02-21T08:49:04;101337.81;;;6.99;100.00
2178;BME280;1095;50.992;6.798;2023-02-21T08:51:56;101340.63;;;6.85;100.00
2178;BME280;1095;50.992;6.798;2023-02-21T08:54:42;101343.03;;;6.99;100.00
2178;BME280;1095;50.992;6.798;2023-02-21T08:57:19;101354.47;;;6.97;100.00
2178;BME280;1095;50.992;6.798;2023-02-21T09:00:12;101356.50;;;7.05;100.00
2178;BME280;1095;50.992;6.798;2023-02-21T09:02:39;101352.97;;;7.06;100.00
2178;BME280;1095;50.992;6.798;2023-02-21T09:05:07;101354.63;;;7.07;100.00
2178;BME280;1095;50.992;6.798;2023-02-21T09:07:34;101356.63;;;7.14;100.00
2178;BME280;1095;50.992;6.798;2023-02-21T09:10:01;101357.72;;;7.23;100.00
2178;BME280;1095;50.992;6.798;2023-02-21T09:12:27;101350.13;;;7.20;100.00
2178;BME280;1095;50.992;6.798;2023-02-21T09:14:56;101346.09;;;7.16;100.00
2178;BME280;1095;50.992;6.798;2023-02-21T09:17:27;101343.50;;;7.16;100.00
2178;BME280;1095;50.992;6.798;2023-02-21T09:19:53;101347.28;;;7.23;100.00
2178;BME280;1095;50.992;6.798;2023-02-21T09:22:23;101341.97;;;7.24;100.00
2178;BME280;1095;50.992;6.798;2023-02-21T09:24:49;101338.53;;;7.24;100.00
2178;BME280;1095;50.992;6.798;2023-02-21T09:27:19;101339.97;;;7.28;100.00
2178;BME280;1095;50.992;6.798;2023-02-21T09:30:01;101330.97;;;7.32;100.00
2178;BME280;1095;50.992;6.798;2023-02-21T09:32:48;101330.97;;;7.32;100.00
2178;BME280;1095;50.992;6.798;2023-02-21T09:35:17;101320.56;;;7.32;100.00
2178;BME280;1095;50.992;6.798;2023-02-21T09:37:45;101325.66;;;7.33;100.00
2178;BME280;1095;50.992;6.798;2023-02-21T09:40:23;101333.34;;;7.46;100.00
2178;BME280;1095;50.992;6.798;2023-02-21T09:42:54;101323.53;;;7.39;100.00
2178;BME280;1095;50.992;6.798;2023-02-21T09:45:24;101327.44;;;7.55;100.00
2178;BME280;1095;50.992;6.798;2023-02-21T09:47:55;101327.44;;;7.44;100.00
2178;BME280;1095;50.992;6.798;2023-02-21T09:50:26;101329.06;;;7.56;100.00
2178;BME280;1095;50.992;6.798;2023-02-21T09:52:56;101319.72;;;7.65;100.00
2178;BME280;1095;50.992;6.798;2023-02-21T09:55:28;101324.91;;;7.76;100.00
2178;BME280;1095;50.992;6.798;2023-02-21T09:57:55;101327.16;;;7.81;100.00
2178;BME280;1095;50.992;6.798;2023-02-21T10:00:28;101332.59;;;7.89;100.00
2178;BME280;1095;50.992;6.798;2023-02-21T10:03:14;101328.44;;;7.86;100.00
2178;BME280;1095;50.992;6.798;2023-02-21T10:05:45;101331.41;;;7.82;100.00
2178;BME280;1095;50.992;6.798;2023-02-21T10:08:21;101323.13;;;7.88;100.00
2178;BME280;1095;50.992;6.798;2023-02-21T10:10:55;101331.31;;;8.15;100.00
2178;BME280;1095;50.992;6.798;2023-02-21T10:13:34;101327.44;;;8.10;100.00
2178;BME280;1095;50.992;6.798;2023-02-21T10:16:07;101340.63;;;7.97;100.00
2178;BME280;1095;50.992;6.798;2023-02-21T10:18:42;101333.53;;;7.99;100.00
2178;BME280;1095;50.992;6.798;2023-02-21T10:21:19;101330.78;;;8.01;100.00
2178;BME280;1095;50.992;6.798;2023-02-21T10:23:50;101322.34;;;8.08;100.00
2178;BME280;1095;50.992;6.798;2023-02-21T10:26:27;101323.53;;;8.04;100.00
2178;BME280;1095;50.992;6.798;2023-02-21T10:29:04;101321.19;;;8.01;100.00
2178;BME280;1095;50.992;6.798;2023-02-21T10:31:42;101316.34;;;7.96;100.00
2178;BME280;1095;50.992;6.798;2023-02-21T10:34:19;101333.59;;;8.09;100.00
2178;BME280;1095;50.992;6.798;2023-02-21T10:36:53;101324.25;;;8.06;100.00
2178;BME280;1095;50.992;6.798;2023-02-21T10:39:35;101318.78;;;8.09;100.00
2178;BME280;1095;50.992;6.798;2023-02-21T10:42:12;101336.88;;;8.22;100.00
2178;BME280;1095;50.992;6.798;2023-02-21T10:44:44;101322.34;;;8.08;100.00
2178;BME280;1095;50.992;6.798;2023-02-21T10:47:25;101332.38;;;8.24;100.00
2178;BME280;1095;50.992;6.798;2023-02-21T10:50:37;101304.06;;;8.19;100.00
2178;BME280;1095;50.992;6.798;2023-02-21T10:53:46;101330.84;;;8.32;100.00
2178;BME280;1095;50.992;6.798;2023-02-21T10:56:46;101304.03;;;8.30;100.00
2178;BME280;1095;50.992;6.798;2023-02-21T10:59:33;101314.44;;;8.42;100.00
2178;BME280;1095;50.992;6.798;2023-02-21T11:02:56;101314.69;;;8.39;100.00
2178;BME280;1095;50.992;6.798;2023-02-21T11:05:47;101303.06;;;8.31;100.00
2178;BME280;1095;50.992;6.798;2023-02-21T11:08:37;101301.41;;;8.30;100.00
2178;BME280;1095;50.992;6.798;2023-02-21T11:11:13;101302.03;;;8.34;100.00
2178;BME280;1095;50.992;6.798;2023-02-21T11:14:21;101300.94;;;8.37;100.00
2178;BME280;1095;50.992;6.798;2023-02-21T11:17:15;101323.84;;;8.54;100.00
2178;BME280;1095;50.992;6.798;2023-02-21T11:19:44;101308.91;;;8.24;100.00
2178;BME280;1095;50.992;6.798;2023-02-21T11:22:19;101303.22;;;8.51;100.00
2178;BME280;1095;50.992;6.798;2023-02-21T11:24:50;101302.47;;;8.60;100.00
2178;BME280;1095;50.992;6.798;2023-02-21T11:27:18;101293.19;;;8.67;100.00
2178;BME280;1095;50.992;6.798;2023-02-21T11:29:54;101289.63;;;8.68;100.00
2178;BME280;1095;50.992;6.798;2023-02-21T11:32:32;101295.75;;;8.78;100.00
2178;BME280;1095;50.992;6.798;2023-02-21T11:35:06;101286.63;;;8.93;100.00
2178;BME280;1095;50.992;6.798;2023-02-21T11:37:49;101277.03;;;9.04;100.00
2178;BME280;1095;50.992;6.798;2023-02-21T11:40:39;101284.41;;;9.19;99.60
2178;BME280;1095;50.992;6.798;2023-02-21T11:43:19;101278.34;;;9.19;99.49
2178;BME280;1095;50.992;6.798;2023-02-21T11:46:02;101269.56;;;9.20;98.77
2178;BME280;1095;50.992;6.798;2023-02-21T11:48:34;101270.69;;;9.27;98.40
2178;BME280;1095;50.992;6.798;2023-02-21T11:51:15;101261.91;;;9.28;98.13
2178;BME280;1095;50.992;6.798;2023-02-21T11:53:47;101259.84;;;9.31;98.32
2178;BME280;1095;50.992;6.798;2023-02-21T11:56:37;101249.56;;;9.40;97.52
2178;BME280;1095;50.992;6.798;2023-02-21T11:59:20;101253.41;;;9.45;97.43
2178;BME280;1095;50.992;6.798;2023-02-21T12:02:40;101237.69;;;9.26;96.76
2178;BME280;1095;50.992;6.798;2023-02-21T12:05:48;101231.56;;;9.46;97.13
2178;BME280;1095;50.992;6.798;2023-02-21T12:15:43;101245.50;;;9.76;95.72
2178;BME280;1095;50.992;6.798;2023-02-21T12:18:48;101226.50;;;9.64;95.24
2178;BME280;1095;50.992;6.798;2023-02-21T12:21:42;101227.91;;;9.78;94.54
2178;BME280;1095;50.992;6.798;2023-02-21T12:24:22;101218.97;;;9.90;94.35
2178;BME280;1095;50.992;6.798;2023-02-21T12:26:57;101214.97;;;10.05;94.47
2178;BME280;1095;50.992;6.798;2023-02-21T12:29:40;101211.94;;;10.10;94.12
2178;BME280;1095;50.992;6.798;2023-02-21T12:32:36;101208.53;;;10.28;93.61
2178;BME280;1095;50.992;6.798;2023-02-21T12:38:05;101201.50;;;10.29;92.75
2178;BME280;1095;50.992;6.798;2023-02-21T12:40:38;101191.44;;;10.34;92.34
2178;BME280;1095;50.992;6.798;2023-02-21T12:43:25;101199.00;;;10.18;92.25
2178;BME280;1095;50.992;6.798;2023-02-21T12:46:00;101195.69;;;10.16;92.58
2178;BME280;1095;50.992;6.798;2023-02-21T12:48:38;101195.88;;;10.24;92.28
2178;BME280;1095;50.992;6.798;2023-02-21T12:51:10;101195.44;;;10.09;92.19
2178;BME280;1095;50.992;6.798;2023-02-21T12:53:42;101191.44;;;10.05;92.12
2178;BME280;1095;50.992;6.798;2023-02-21T12:56:18;101188.00;;;10.14;92.26
2178;BME280;1095;50.992;6.798;2023-02-21T12:58:50;101189.91;;;10.12;91.95
2178;BME280;1095;50.992;6.798;2023-02-21T13:01:22;101187.88;;;10.35;92.24
2178;BME280;1095;50.992;6.798;2023-02-21T13:03:55;101179.72;;;10.19;91.82
2178;BME280;1095;50.992;6.798;2023-02-21T13:06:27;101176.72;;;10.23;92.33
2178;BME280;1095;50.992;6.798;2023-02-21T13:09:05;101173.13;;;10.15;92.30
2178;BME280;1095;50.992;6.798;2023-02-21T13:11:40;101174.50;;;10.09;92.28
2178;BME280;1095;50.992;6.798;2023-02-21T13:14:10;101170.25;;;10.18;92.55
2178;BME280;1095;50.992;6.798;2023-02-21T13:16:39;101170.56;;;9.86;93.01
2178;BME280;1095;50.992;6.798;2023-02-21T13:19:08;101171.38;;;9.77;93.13
2178;BME280;1095;50.992;6.798;2023-02-21T13:21:49;101168.88;;;9.65;94.09
2178;BME280;1095;50.992;6.798;2023-02-21T13:24:28;101163.25;;;9.70;94.39
2178;BME280;1095;50.992;6.798;2023-02-21T13:27:32;101151.44;;;9.85;94.38
2178;BME280;1095;50.992;6.798;2023-02-21T13:30:11;101160.78;;;9.78;94.57
2178;BME280;1095;50.992;6.798;2023-02-21T13:32:39;101158.31;;;9.86;94.90
2178;BME280;1095;50.992;6.798;2023-02-21T13:35:19;101147.81;;;9.96;93.97
2178;BME280;1095;50.992;6.798;2023-02-21T13:37:49;101143.97;;;10.00;93.81
2178;BME280;1095;50.992;6.798;2023-02-21T13:40:19;101137.88;;;10.19;93.62
2178;BME280;1095;50.992;6.798;2023-02-21T13:42:58;101147.81;;;9.96;93.49
2178;BME280;1095;50.992;6.798;2023-02-21T13:45:27;101132.84;;;9.88;93.85
2178;BME280;1095;50.992;6.798;2023-02-21T13:48:20;101135.47;;;9.79;94.13
2178;BME280;1095;50.992;6.798;2023-02-21T13:50:49;101128.31;;;9.61;94.64
2178;BME280;1095;50.992;6.798;2023-02-21T13:53:18;101133.28;;;9.74;95.34
2178;BME280;1095;50.992;6.798;2023-02-21T13:58:50;101134.22;;;9.83;94.32
2178;BME280;1095;50.992;6.798;2023-02-21T14:07:43;101117.88;;;9.71;95.11
2178;BME280;1095;50.992;6.798;2023-02-21T14:10:21;101112.03;;;9.96;95.28
2178;BME280;1095;50.992;6.798;2023-02-21T14:12:54;101116.69;;;10.12;94.62
2178;BME280;1095;50.992;6.798;2023-02-21T14:15:35;101106.25;;;10.22;93.95
2178;BME280;1095;50.992;6.798;2023-02-21T14:18:02;101104.47;;;10.22;93.29
2178;BME280;1095;50.992;6.798;2023-02-21T14:20:29;101103.25;;;9.97;93.09
2178;BME280;1095;50.992;6.798;2023-02-21T14:22:57;101099.38;;;10.02;93.38
2178;BME280;1095;50.992;6.798;2023-02-21T14:25:25;101107.13;;;9.84;93.65